« Back
NWS Peachtree City, Ga » Text Product » MCN Terminal Aerodrome Forecast


Printer-friendly Version
Current Version              Previous Versions:   1  2  3  4  5  6  7  8  9  

Terminal Aerodrome Forecast

389
FTUS42 KFFC 221700
TAFMCN
TAF
KMCN 221737Z 2218/2318 12005KT P6SM VCSH SCT020 BKN035
      TEMPO 2219/2223 4SM -TSRA BKN020CB
     FM230000 00000KT P6SM BKN035
     FM230900 00000KT 4SM BR BKN006
     FM231400 23003KT P6SM BKN020
     FM231700 24006KT P6SM VCSH SCT035 BKN050=



USA.gov is the U.S. government's official web portal to all federal, state and local government web resources and services.